PWSweather.com
Personal Weather Stations
Station Observations
SHAHALMS1
Eftra, Falkenberg, HA

EftraFalkenberg, HA

Lat: 56.85, Lon: 12.65

Elevation: 140

Station Type:

http://hem.passagen.se/risarp101

Latest ConditionsUpdated 9:30:02 AM GMT+1 Friday, Aug 18, 2017
Currently Today's Max Today's Min Today's Average
Temperature 66.2°F19.0°C 66.2°F19.0°C 61.5°F16.4°C 63.0°F17.2°C
Dew Point 64.1°F17.8°C 64.8°F18.2°C 60.9°F16.1°C 62.6°F17.0°C
Winds 5.3 mph S8.5 kmh S 6.4 mph SSW10.3 kmh SSW - 4.9 mph 7.9 kmh
Wind Gusts 12.9 mph20.8 kmh 17.5 mph28.2 kmh - -
Humidity 93% 100% 93% 99%
Pressure 29.77 in1008.1 mb 29.80 in1009.1 mb 29.74 in1007.1 mb -
Precipitation - 0.10 in2.5 mm - -
Hour Temp Dew Point Humidity Winds Wind Gusts Pressure Precip Precip Rate Daily Precip Total
09:30 AM 66.2°F19.0°C 64.1°F17.8°C 93% 5.3 mph S8.5 kmh S 12.9 mph20.8 kmh 29.77 in1008.1 mb 0.00 in0.0 mm 0.00 in0.0 mm 0.10 in2.5 mm
09:15 AM 66.2°F19.0°C 64.4°F18.0°C 94% 4.5 mph SW7.2 kmh SW 12.2 mph19.6 kmh 29.77 in1008.1 mb 0.00 in0.0 mm 0.00 in0.0 mm 0.10 in2.5 mm
09:00 AM 65.8°F18.8°C 64.1°F17.8°C 94% 4.9 mph SSW7.9 kmh SSW 12.9 mph20.8 kmh 29.77 in1008.1 mb 0.00 in0.0 mm 0.00 in0.0 mm 0.10 in2.5 mm
08:45 AM 65.7°F18.7°C 63.6°F17.6°C 93% 4.2 mph S6.8 kmh S 11.1 mph17.9 kmh 29.77 in1008.1 mb 0.00 in0.0 mm 0.00 in0.0 mm 0.10 in2.5 mm
08:30 AM 65.8°F18.8°C 64.1°F17.8°C 94% 4.7 mph S7.6 kmh S 10.0 mph16.1 kmh 29.77 in1008.1 mb 0.00 in0.0 mm 0.00 in0.0 mm 0.10 in2.5 mm
08:15 AM 66.0°F18.9°C 64.8°F18.2°C 96% 3.7 mph S6.0 kmh S 9.7 mph15.6 kmh 29.77 in1008.1 mb 0.00 in0.0 mm 0.00 in0.0 mm 0.10 in2.5 mm
08:00 AM 65.3°F18.5°C 64.4°F18.0°C 97% 3.6 mph S5.8 kmh S 8.6 mph13.8 kmh 29.77 in1008.1 mb 0.00 in0.0 mm 0.00 in0.0 mm 0.10 in2.5 mm
07:45 AM 64.8°F18.2°C 64.8°F18.2°C 100% 4.6 mph S7.4 kmh S 11.5 mph18.5 kmh 29.77 in1008.1 mb 0.00 in0.0 mm 0.00 in0.0 mm 0.10 in2.5 mm
07:30 AM 64.6°F18.1°C 64.6°F18.1°C 100% 4.8 mph S7.7 kmh S 10.0 mph16.1 kmh 29.77 in1008.1 mb 0.00 in0.0 mm 0.00 in0.0 mm 0.10 in2.5 mm
07:15 AM 64.2°F17.9°C 64.2°F17.9°C 100% 4.4 mph S7.1 kmh S 12.2 mph19.6 kmh 29.77 in1008.1 mb 0.00 in0.0 mm 0.00 in0.0 mm 0.10 in2.5 mm
07:00 AM 63.7°F17.6°C 63.7°F17.6°C 100% 6.0 mph S9.7 kmh S 15.7 mph25.3 kmh 29.77 in1008.1 mb 0.00 in0.0 mm 0.00 in0.0 mm 0.10 in2.5 mm
06:45 AM 63.0°F17.2°C 63.0°F17.2°C 100% 5.6 mph S9.0 kmh S 12.2 mph19.6 kmh 29.77 in1008.1 mb 0.00 in0.0 mm 0.00 in0.0 mm 0.10 in2.5 mm
06:30 AM 62.8°F17.1°C 62.8°F17.1°C 100% 6.2 mph SSW10.0 kmh SSW 12.9 mph20.8 kmh 29.77 in1008.1 mb 0.00 in0.0 mm 0.00 in0.0 mm 0.10 in2.5 mm
06:15 AM 62.6°F17.0°C 62.6°F17.0°C 100% 5.7 mph S9.2 kmh S 13.6 mph21.9 kmh 29.77 in1008.1 mb 0.00 in0.0 mm 0.00 in0.0 mm 0.10 in2.5 mm
06:00 AM 62.6°F17.0°C 62.6°F17.0°C 100% 3.6 mph SSW5.8 kmh SSW 8.9 mph14.3 kmh 29.77 in1008.1 mb 0.00 in0.0 mm 0.00 in0.0 mm 0.10 in2.5 mm
05:45 AM 62.4°F16.9°C 62.4°F16.9°C 100% 4.9 mph SW7.9 kmh SW 11.5 mph18.5 kmh 29.77 in1008.1 mb 0.00 in0.0 mm 0.00 in0.0 mm 0.10 in2.5 mm
05:30 AM 62.1°F16.7°C 62.1°F16.7°C 100% 4.7 mph S7.6 kmh S 12.5 mph20.1 kmh 29.77 in1008.1 mb 0.00 in0.0 mm 0.00 in0.0 mm 0.10 in2.5 mm
05:15 AM 61.9°F16.6°C 61.9°F16.6°C 100% 4.6 mph S7.4 kmh S 10.4 mph16.7 kmh 29.74 in1007.1 mb 0.00 in0.0 mm 0.00 in0.0 mm 0.10 in2.5 mm
05:00 AM 61.7°F16.5°C 61.7°F16.5°C 100% 2.6 mph SW4.2 kmh SW 10.0 mph16.1 kmh 29.74 in1007.1 mb 0.00 in0.0 mm 0.00 in0.0 mm 0.10 in2.5 mm
04:45 AM 61.5°F16.4°C 61.5°F16.4°C 100% 2.9 mph SSW4.7 kmh SSW 8.6 mph13.8 kmh 29.74 in1007.1 mb 0.00 in0.0 mm 0.00 in0.0 mm 0.10 in2.5 mm
04:30 AM 61.7°F16.5°C 61.7°F16.5°C 100% 3.4 mph SSW5.5 kmh SSW 7.5 mph12.1 kmh 29.77 in1008.1 mb 0.00 in0.0 mm 0.00 in0.0 mm 0.10 in2.5 mm
04:15 AM 61.9°F16.6°C 61.9°F16.6°C 100% 3.9 mph S6.3 kmh S 14.0 mph22.5 kmh 29.74 in1007.1 mb 0.00 in0.0 mm 0.00 in0.0 mm 0.10 in2.5 mm
04:00 AM 62.1°F16.7°C 62.1°F16.7°C 100% 3.9 mph S6.3 kmh S 10.4 mph16.7 kmh 29.74 in1007.1 mb 0.00 in0.0 mm 0.00 in0.0 mm 0.10 in2.5 mm
03:45 AM 62.2°F16.8°C 62.2°F16.8°C 100% 3.9 mph SSW6.3 kmh SSW 10.0 mph16.1 kmh 29.77 in1008.1 mb 0.00 in0.0 mm 0.00 in0.0 mm 0.10 in2.5 mm
03:30 AM 62.1°F16.7°C 62.1°F16.7°C 100% 5.9 mph SSW9.5 kmh SSW 13.6 mph21.9 kmh 29.74 in1007.1 mb 0.00 in0.0 mm 0.00 in0.0 mm 0.10 in2.5 mm
03:15 AM 62.2°F16.8°C 62.2°F16.8°C 100% 4.9 mph SSW7.9 kmh SSW 9.7 mph15.6 kmh 29.77 in1008.1 mb 0.00 in0.0 mm 0.00 in0.0 mm 0.10 in2.5 mm
03:00 AM 62.2°F16.8°C 62.2°F16.8°C 100% 5.8 mph S9.3 kmh S 17.5 mph28.2 kmh 29.77 in1008.1 mb 0.00 in0.0 mm 0.00 in0.0 mm 0.10 in2.5 mm
02:45 AM 62.2°F16.8°C 62.2°F16.8°C 100% 5.6 mph S9.0 kmh S 14.3 mph23.0 kmh 29.77 in1008.1 mb 0.00 in0.0 mm 0.00 in0.0 mm 0.10 in2.5 mm
02:30 AM 62.2°F16.8°C 62.2°F16.8°C 100% 5.0 mph S8.0 kmh S 14.0 mph22.5 kmh 29.77 in1008.1 mb 0.00 in0.0 mm 0.00 in0.0 mm 0.10 in2.5 mm
02:15 AM 62.1°F16.7°C 62.1°F16.7°C 100% 5.6 mph S9.0 kmh S 11.8 mph19.0 kmh 29.77 in1008.1 mb 0.00 in0.0 mm 0.00 in0.0 mm 0.10 in2.5 mm
02:00 AM 62.1°F16.7°C 62.1°F16.7°C 100% 6.4 mph SSW10.3 kmh SSW 13.6 mph21.9 kmh 29.77 in1008.1 mb 0.00 in0.0 mm 0.00 in0.0 mm 0.10 in2.5 mm
01:45 AM 62.1°F16.7°C 62.1°F16.7°C 100% 5.8 mph S9.3 kmh S 15.4 mph24.8 kmh 29.77 in1008.1 mb 0.00 in0.0 mm 0.00 in0.0 mm 0.10 in2.5 mm
01:30 AM 62.1°F16.7°C 62.1°F16.7°C 100% 6.1 mph S9.8 kmh S 14.0 mph22.5 kmh 29.77 in1008.1 mb 0.00 in0.0 mm 0.00 in0.0 mm 0.10 in2.5 mm
01:15 AM 62.1°F16.7°C 61.2°F16.2°C 97% 6.0 mph S9.7 kmh S 14.0 mph22.5 kmh 29.77 in1008.1 mb 0.00 in0.0 mm 0.00 in0.0 mm 0.10 in2.5 mm
01:00 AM 61.9°F16.6°C 61.0°F16.1°C 97% 5.8 mph S9.3 kmh S 10.4 mph16.7 kmh 29.77 in1008.1 mb 0.06 in1.5 mm 0.00 in0.0 mm 0.10 in2.5 mm
12:45 AM 61.9°F16.6°C 61.0°F16.1°C 97% 4.3 mph S6.9 kmh S 10.0 mph16.1 kmh 29.80 in1009.1 mb 0.06 in1.5 mm 0.00 in0.0 mm 0.10 in2.5 mm
12:30 AM 61.9°F16.6°C 61.0°F16.1°C 97% 5.9 mph S9.5 kmh S 12.5 mph20.1 kmh 29.80 in1009.1 mb 0.06 in1.5 mm 0.00 in0.0 mm 0.10 in2.5 mm
12:15 AM 61.9°F16.6°C 61.0°F16.1°C 97% 5.8 mph S9.3 kmh S 16.1 mph25.9 kmh 29.80 in1009.1 mb 0.06 in1.5 mm 0.08 in2.0 mm 0.10 in2.5 mm
12:00 AM 62.1°F16.7°C 60.9°F16.1°C 96% 5.1 mph S8.2 kmh S 10.4 mph16.7 kmh 29.80 in1009.1 mb 0.04 in1.0 mm 0.00 in0.0 mm 0.04 in1.0 mm